sensor_id;sensor_type;location;lat;lon;timestamp;temperature;humidity
27544;DHT22;17996;51.056;3.656;2023-04-06T00:01:21;9.90;99.90
27544;DHT22;17996;51.056;3.656;2023-04-06T00:03:46;9.90;99.90
27544;DHT22;17996;51.056;3.656;2023-04-06T00:06:12;9.90;99.90
27544;DHT22;17996;51.056;3.656;2023-04-06T00:08:38;9.90;99.90
27544;DHT22;17996;51.056;3.656;2023-04-06T00:11:03;9.90;99.90
27544;DHT22;17996;51.056;3.656;2023-04-06T00:13:29;9.90;99.90
27544;DHT22;17996;51.056;3.656;2023-04-06T00:15:55;9.90;99.90
27544;DHT22;17996;51.056;3.656;2023-04-06T00:18:20;9.80;99.90
27544;DHT22;17996;51.056;3.656;2023-04-06T00:20:46;9.80;99.90
27544;DHT22;17996;51.056;3.656;2023-04-06T00:23:12;9.80;99.90
27544;DHT22;17996;51.056;3.656;2023-04-06T00:25:37;9.80;99.90
27544;DHT22;17996;51.056;3.656;2023-04-06T00:28:03;9.80;99.90
27544;DHT22;17996;51.056;3.656;2023-04-06T00:30:29;9.80;99.90
27544;DHT22;17996;51.056;3.656;2023-04-06T00:32:55;9.80;99.90
27544;DHT22;17996;51.056;3.656;2023-04-06T00:35:20;9.80;99.90
27544;DHT22;17996;51.056;3.656;2023-04-06T00:37:46;9.80;99.90
27544;DHT22;17996;51.056;3.656;2023-04-06T00:40:13;9.90;99.90
27544;DHT22;17996;51.056;3.656;2023-04-06T00:42:40;9.90;99.90
27544;DHT22;17996;51.056;3.656;2023-04-06T00:45:06;9.90;99.90
27544;DHT22;17996;51.056;3.656;2023-04-06T00:47:33;9.90;99.90
27544;DHT22;17996;51.056;3.656;2023-04-06T00:49:59;9.90;99.90
27544;DHT22;17996;51.056;3.656;2023-04-06T00:52:24;9.90;99.90
27544;DHT22;17996;51.056;3.656;2023-04-06T00:54:50;9.90;99.90
27544;DHT22;17996;51.056;3.656;2023-04-06T00:57:16;9.90;99.90
27544;DHT22;17996;51.056;3.656;2023-04-06T00:59:43;9.90;99.90
27544;DHT22;17996;51.056;3.656;2023-04-06T01:02:09;9.90;99.90
27544;DHT22;17996;51.056;3.656;2023-04-06T01:04:35;9.90;99.90
27544;DHT22;17996;51.056;3.656;2023-04-06T01:07:01;9.80;99.90
27544;DHT22;17996;51.056;3.656;2023-04-06T01:09:29;9.80;99.90
27544;DHT22;17996;51.056;3.656;2023-04-06T01:11:56;9.80;99.90
27544;DHT22;17996;51.056;3.656;2023-04-06T01:14:23;9.80;99.90
27544;DHT22;17996;51.056;3.656;2023-04-06T01:16:49;9.80;99.90
27544;DHT22;17996;51.056;3.656;2023-04-06T01:19:14;9.80;99.90
27544;DHT22;17996;51.056;3.656;2023-04-06T01:21:41;9.80;99.90
27544;DHT22;17996;51.056;3.656;2023-04-06T01:24:07;9.80;99.90
27544;DHT22;17996;51.056;3.656;2023-04-06T01:26:34;9.70;99.90
27544;DHT22;17996;51.056;3.656;2023-04-06T01:29:00;9.80;99.90
27544;DHT22;17996;51.056;3.656;2023-04-06T01:31:26;9.70;99.90
27544;DHT22;17996;51.056;3.656;2023-04-06T01:33:52;9.80;99.90
27544;DHT22;17996;51.056;3.656;2023-04-06T01:36:18;9.80;99.90
27544;DHT22;17996;51.056;3.656;2023-04-06T01:38:44;9.80;99.90
27544;DHT22;17996;51.056;3.656;2023-04-06T01:41:10;9.80;99.90
27544;DHT22;17996;51.056;3.656;2023-04-06T01:43:36;9.80;99.90
27544;DHT22;17996;51.056;3.656;2023-04-06T01:46:01;9.80;99.90
27544;DHT22;17996;51.056;3.656;2023-04-06T01:48:27;9.80;99.90
27544;DHT22;17996;51.056;3.656;2023-04-06T01:50:54;9.80;99.90
27544;DHT22;17996;51.056;3.656;2023-04-06T01:53:19;9.80;99.90
27544;DHT22;17996;51.056;3.656;2023-04-06T01:55:45;9.80;99.90
27544;DHT22;17996;51.056;3.656;2023-04-06T01:58:12;9.80;99.90
27544;DHT22;17996;51.056;3.656;2023-04-06T02:00:38;9.80;99.90
27544;DHT22;17996;51.056;3.656;2023-04-06T02:03:04;9.80;99.90
27544;DHT22;17996;51.056;3.656;2023-04-06T02:05:30;9.70;99.90
27544;DHT22;17996;51.056;3.656;2023-04-06T02:07:57;9.70;99.90
27544;DHT22;17996;51.056;3.656;2023-04-06T02:10:22;9.70;99.90
27544;DHT22;17996;51.056;3.656;2023-04-06T02:12:49;9.70;99.90
27544;DHT22;17996;51.056;3.656;2023-04-06T02:15:15;9.70;99.90
27544;DHT22;17996;51.056;3.656;2023-04-06T02:17:41;9.70;99.90
27544;DHT22;17996;51.056;3.656;2023-04-06T02:20:07;9.70;99.90
27544;DHT22;17996;51.056;3.656;2023-04-06T02:22:35;9.70;99.90
27544;DHT22;17996;51.056;3.656;2023-04-06T02:25:01;9.70;99.90
27544;DHT22;17996;51.056;3.656;2023-04-06T02:27:27;9.70;99.90
27544;DHT22;17996;51.056;3.656;2023-04-06T02:29:53;9.70;99.90
27544;DHT22;17996;51.056;3.656;2023-04-06T02:32:19;9.70;99.90
27544;DHT22;17996;51.056;3.656;2023-04-06T02:34:45;9.70;99.90
27544;DHT22;17996;51.056;3.656;2023-04-06T02:37:10;9.70;99.90
27544;DHT22;17996;51.056;3.656;2023-04-06T02:39:36;9.70;99.90
27544;DHT22;17996;51.056;3.656;2023-04-06T02:42:02;9.70;99.90
27544;DHT22;17996;51.056;3.656;2023-04-06T02:44:27;9.70;99.90
27544;DHT22;17996;51.056;3.656;2023-04-06T02:46:53;9.70;99.90
27544;DHT22;17996;51.056;3.656;2023-04-06T02:49:20;9.70;99.90
27544;DHT22;17996;51.056;3.656;2023-04-06T02:51:45;9.70;99.90
27544;DHT22;17996;51.056;3.656;2023-04-06T02:54:11;9.60;99.90
27544;DHT22;17996;51.056;3.656;2023-04-06T02:56:37;9.60;99.90
27544;DHT22;17996;51.056;3.656;2023-04-06T02:59:02;9.60;99.90
27544;DHT22;17996;51.056;3.656;2023-04-06T03:01:28;9.60;99.90
27544;DHT22;17996;51.056;3.656;2023-04-06T03:03:54;9.60;99.90
27544;DHT22;17996;51.056;3.656;2023-04-06T03:06:19;9.60;99.90
27544;DHT22;17996;51.056;3.656;2023-04-06T03:08:45;9.60;99.90
27544;DHT22;17996;51.056;3.656;2023-04-06T03:11:11;9.60;99.90
27544;DHT22;17996;51.056;3.656;2023-04-06T03:13:37;9.60;99.90
27544;DHT22;17996;51.056;3.656;2023-04-06T03:16:05;9.60;99.90
27544;DHT22;17996;51.056;3.656;2023-04-06T03:18:31;9.60;99.90
27544;DHT22;17996;51.056;3.656;2023-04-06T03:20:57;9.60;99.90
27544;DHT22;17996;51.056;3.656;2023-04-06T03:23:22;9.60;99.90
27544;DHT22;17996;51.056;3.656;2023-04-06T03:25:48;9.60;99.90
27544;DHT22;17996;51.056;3.656;2023-04-06T03:28:14;9.60;99.90
27544;DHT22;17996;51.056;3.656;2023-04-06T03:30:41;9.60;99.90
27544;DHT22;17996;51.056;3.656;2023-04-06T03:33:07;9.50;99.90
27544;DHT22;17996;51.056;3.656;2023-04-06T03:35:32;9.60;99.90
27544;DHT22;17996;51.056;3.656;2023-04-06T03:37:58;9.60;99.90
27544;DHT22;17996;51.056;3.656;2023-04-06T03:40:24;9.60;99.90
27544;DHT22;17996;51.056;3.656;2023-04-06T03:42:50;9.60;99.90
27544;DHT22;17996;51.056;3.656;2023-04-06T03:45:16;9.60;99.90
27544;DHT22;17996;51.056;3.656;2023-04-06T03:47:41;9.60;99.90
27544;DHT22;17996;51.056;3.656;2023-04-06T03:50:07;9.60;99.90
27544;DHT22;17996;51.056;3.656;2023-04-06T03:52:35;9.60;99.90
27544;DHT22;17996;51.056;3.656;2023-04-06T03:55:02;9.60;99.90
27544;DHT22;17996;51.056;3.656;2023-04-06T03:57:28;9.60;99.90
27544;DHT22;17996;51.056;3.656;2023-04-06T03:59:53;9.60;99.90
27544;DHT22;17996;51.056;3.656;2023-04-06T04:02:19;9.60;99.90
27544;DHT22;17996;51.056;3.656;2023-04-06T04:04:45;9.70;99.90
27544;DHT22;17996;51.056;3.656;2023-04-06T04:07:11;9.60;99.90
27544;DHT22;17996;51.056;3.656;2023-04-06T04:09:37;9.70;99.90
27544;DHT22;17996;51.056;3.656;2023-04-06T04:12:02;9.70;99.90
27544;DHT22;17996;51.056;3.656;2023-04-06T04:14:28;9.70;99.90
27544;DHT22;17996;51.056;3.656;2023-04-06T04:16:54;9.70;99.90
27544;DHT22;17996;51.056;3.656;2023-04-06T04:19:19;9.70;99.90
27544;DHT22;17996;51.056;3.656;2023-04-06T04:21:46;9.70;99.90
27544;DHT22;17996;51.056;3.656;2023-04-06T04:24:12;9.60;99.90
27544;DHT22;17996;51.056;3.656;2023-04-06T04:26:39;9.60;99.90
27544;DHT22;17996;51.056;3.656;2023-04-06T04:29:05;9.60;99.90
27544;DHT22;17996;51.056;3.656;2023-04-06T04:31:30;9.60;99.90
27544;DHT22;17996;51.056;3.656;2023-04-06T04:33:56;9.60;99.90
27544;DHT22;17996;51.056;3.656;2023-04-06T04:36:22;9.60;99.90
27544;DHT22;17996;51.056;3.656;2023-04-06T04:38:49;9.60;99.90
27544;DHT22;17996;51.056;3.656;2023-04-06T04:41:15;9.60;99.90
27544;DHT22;17996;51.056;3.656;2023-04-06T04:43:41;9.60;99.90
27544;DHT22;17996;51.056;3.656;2023-04-06T04:46:07;9.60;99.90
27544;DHT22;17996;51.056;3.656;2023-04-06T04:48:33;9.60;99.90
27544;DHT22;17996;51.056;3.656;2023-04-06T04:50:58;9.60;99.90
27544;DHT22;17996;51.056;3.656;2023-04-06T04:53:24;9.60;99.90
27544;DHT22;17996;51.056;3.656;2023-04-06T04:55:49;9.60;99.90
27544;DHT22;17996;51.056;3.656;2023-04-06T04:58:15;9.60;99.90
27544;DHT22;17996;51.056;3.656;2023-04-06T05:00:42;9.60;99.90
27544;DHT22;17996;51.056;3.656;2023-04-06T05:03:09;9.60;99.90
27544;DHT22;17996;51.056;3.656;2023-04-06T05:05:36;9.60;99.90
27544;DHT22;17996;51.056;3.656;2023-04-06T05:08:02;9.60;99.90
27544;DHT22;17996;51.056;3.656;2023-04-06T05:10:27;9.70;99.90
27544;DHT22;17996;51.056;3.656;2023-04-06T05:12:53;9.60;99.90
27544;DHT22;17996;51.056;3.656;2023-04-06T05:15:19;9.60;99.90
27544;DHT22;17996;51.056;3.656;2023-04-06T05:17:45;9.70;99.90
27544;DHT22;17996;51.056;3.656;2023-04-06T05:20:10;9.60;99.90
27544;DHT22;17996;51.056;3.656;2023-04-06T05:22:36;9.60;99.90
27544;DHT22;17996;51.056;3.656;2023-04-06T05:25:03;9.70;99.90
27544;DHT22;17996;51.056;3.656;2023-04-06T05:27:28;9.60;99.90
27544;DHT22;17996;51.056;3.656;2023-04-06T05:29:54;9.60;99.90
27544;DHT22;17996;51.056;3.656;2023-04-06T05:32:20;9.60;99.90
27544;DHT22;17996;51.056;3.656;2023-04-06T05:34:50;9.60;99.90
27544;DHT22;17996;51.056;3.656;2023-04-06T05:37:16;9.60;99.90
27544;DHT22;17996;51.056;3.656;2023-04-06T05:39:41;9.60;99.90
27544;DHT22;17996;51.056;3.656;2023-04-06T05:42:07;9.60;99.90
27544;DHT22;17996;51.056;3.656;2023-04-06T05:44:33;9.60;99.90
27544;DHT22;17996;51.056;3.656;2023-04-06T05:46:58;9.60;99.90
27544;DHT22;17996;51.056;3.656;2023-04-06T05:49:24;9.60;99.90
27544;DHT22;17996;51.056;3.656;2023-04-06T05:51:50;9.60;99.90
27544;DHT22;17996;51.056;3.656;2023-04-06T05:54:16;9.60;99.90
27544;DHT22;17996;51.056;3.656;2023-04-06T05:56:41;9.60;99.90
27544;DHT22;17996;51.056;3.656;2023-04-06T05:59:07;9.60;99.90
27544;DHT22;17996;51.056;3.656;2023-04-06T06:01:33;9.60;99.90
27544;DHT22;17996;51.056;3.656;2023-04-06T06:04:01;9.60;99.90
27544;DHT22;17996;51.056;3.656;2023-04-06T06:06:27;9.60;99.90
27544;DHT22;17996;51.056;3.656;2023-04-06T06:08:54;9.60;99.90
27544;DHT22;17996;51.056;3.656;2023-04-06T06:11:19;9.60;99.90
27544;DHT22;17996;51.056;3.656;2023-04-06T06:13:45;9.50;99.90
27544;DHT22;17996;51.056;3.656;2023-04-06T06:16:11;9.50;99.90
27544;DHT22;17996;51.056;3.656;2023-04-06T06:18:36;9.50;99.90
27544;DHT22;17996;51.056;3.656;2023-04-06T06:21:02;9.50;99.90
27544;DHT22;17996;51.056;3.656;2023-04-06T06:23:28;9.50;99.90
27544;DHT22;17996;51.056;3.656;2023-04-06T06:25:53;9.60;99.90
27544;DHT22;17996;51.056;3.656;2023-04-06T06:28:19;9.60;99.90
27544;DHT22;17996;51.056;3.656;2023-04-06T06:30:45;9.60;99.90
27544;DHT22;17996;51.056;3.656;2023-04-06T06:33:10;9.60;99.90
27544;DHT22;17996;51.056;3.656;2023-04-06T06:35:36;9.60;99.90
27544;DHT22;17996;51.056;3.656;2023-04-06T06:38:02;9.60;99.90
27544;DHT22;17996;51.056;3.656;2023-04-06T06:40:28;9.60;99.90
27544;DHT22;17996;51.056;3.656;2023-04-06T06:42:53;9.70;99.90
27544;DHT22;17996;51.056;3.656;2023-04-06T06:45:19;9.80;99.90
27544;DHT22;17996;51.056;3.656;2023-04-06T06:47:45;9.80;99.90
27544;DHT22;17996;51.056;3.656;2023-04-06T06:50:11;9.90;99.90
27544;DHT22;17996;51.056;3.656;2023-04-06T06:52:37;9.90;99.90
27544;DHT22;17996;51.056;3.656;2023-04-06T06:55:03;9.90;99.90
27544;DHT22;17996;51.056;3.656;2023-04-06T06:57:29;9.90;99.90
27544;DHT22;17996;51.056;3.656;2023-04-06T06:59:55;10.00;99.90
27544;DHT22;17996;51.056;3.656;2023-04-06T07:02:21;10.10;99.90
27544;DHT22;17996;51.056;3.656;2023-04-06T07:04:49;10.10;99.90
27544;DHT22;17996;51.056;3.656;2023-04-06T07:07:15;10.20;99.90
27544;DHT22;17996;51.056;3.656;2023-04-06T07:09:41;10.20;99.90
27544;DHT22;17996;51.056;3.656;2023-04-06T07:12:06;10.30;99.90
27544;DHT22;17996;51.056;3.656;2023-04-06T07:14:32;10.30;99.90
27544;DHT22;17996;51.056;3.656;2023-04-06T07:16:58;10.30;99.90
27544;DHT22;17996;51.056;3.656;2023-04-06T07:19:23;10.30;99.90
27544;DHT22;17996;51.056;3.656;2023-04-06T07:21:49;10.40;99.90
27544;DHT22;17996;51.056;3.656;2023-04-06T07:24:15;10.40;99.90
27544;DHT22;17996;51.056;3.656;2023-04-06T07:26:42;10.40;99.90
27544;DHT22;17996;51.056;3.656;2023-04-06T07:29:08;10.40;99.90
27544;DHT22;17996;51.056;3.656;2023-04-06T07:31:34;10.40;99.90
27544;DHT22;17996;51.056;3.656;2023-04-06T07:34:01;10.40;99.90
27544;DHT22;17996;51.056;3.656;2023-04-06T07:36:27;10.50;99.90
27544;DHT22;17996;51.056;3.656;2023-04-06T07:38:53;10.40;99.90
27544;DHT22;17996;51.056;3.656;2023-04-06T07:41:18;10.40;99.90
27544;DHT22;17996;51.056;3.656;2023-04-06T07:43:44;10.40;99.90
27544;DHT22;17996;51.056;3.656;2023-04-06T07:46:09;10.40;99.90
27544;DHT22;17996;51.056;3.656;2023-04-06T07:48:35;10.50;99.90
27544;DHT22;17996;51.056;3.656;2023-04-06T07:51:04;10.50;99.90
27544;DHT22;17996;51.056;3.656;2023-04-06T07:53:30;10.50;99.90
27544;DHT22;17996;51.056;3.656;2023-04-06T07:55:58;10.50;99.90
27544;DHT22;17996;51.056;3.656;2023-04-06T07:58:24;10.60;99.90
27544;DHT22;17996;51.056;3.656;2023-04-06T08:00:49;10.60;99.90
27544;DHT22;17996;51.056;3.656;2023-04-06T08:03:15;10.70;99.90
27544;DHT22;17996;51.056;3.656;2023-04-06T08:05:42;10.70;99.90
27544;DHT22;17996;51.056;3.656;2023-04-06T08:08:08;10.60;99.90
27544;DHT22;17996;51.056;3.656;2023-04-06T08:10:34;10.70;99.90
27544;DHT22;17996;51.056;3.656;2023-04-06T08:13:00;10.70;99.90
27544;DHT22;17996;51.056;3.656;2023-04-06T08:15:26;10.70;99.90
27544;DHT22;17996;51.056;3.656;2023-04-06T08:17:52;10.70;99.90
27544;DHT22;17996;51.056;3.656;2023-04-06T08:20:17;10.70;99.90
27544;DHT22;17996;51.056;3.656;2023-04-06T08:22:43;10.70;99.90
27544;DHT22;17996;51.056;3.656;2023-04-06T08:25:09;10.70;99.90
27544;DHT22;17996;51.056;3.656;2023-04-06T08:27:35;10.80;99.90
27544;DHT22;17996;51.056;3.656;2023-04-06T08:30:00;10.80;99.90
27544;DHT22;17996;51.056;3.656;2023-04-06T08:32:27;10.90;99.90
27544;DHT22;17996;51.056;3.656;2023-04-06T08:34:55;10.90;99.90
27544;DHT22;17996;51.056;3.656;2023-04-06T08:37:22;10.90;99.90
27544;DHT22;17996;51.056;3.656;2023-04-06T08:39:47;11.00;99.90
27544;DHT22;17996;51.056;3.656;2023-04-06T08:42:20;10.90;99.90
27544;DHT22;17996;51.056;3.656;2023-04-06T08:44:48;11.00;99.90
27544;DHT22;17996;51.056;3.656;2023-04-06T08:47:16;11.10;99.90
27544;DHT22;17996;51.056;3.656;2023-04-06T08:49:43;11.00;99.90
27544;DHT22;17996;51.056;3.656;2023-04-06T08:52:10;11.00;99.90
27544;DHT22;17996;51.056;3.656;2023-04-06T08:54:38;11.00;99.90
27544;DHT22;17996;51.056;3.656;2023-04-06T08:57:05;11.10;99.90
27544;DHT22;17996;51.056;3.656;2023-04-06T08:59:31;11.10;99.90
27544;DHT22;17996;51.056;3.656;2023-04-06T09:01:57;11.10;99.90
27544;DHT22;17996;51.056;3.656;2023-04-06T09:04:26;11.10;99.90
27544;DHT22;17996;51.056;3.656;2023-04-06T09:06:52;11.10;99.90
27544;DHT22;17996;51.056;3.656;2023-04-06T09:09:18;11.10;99.90
27544;DHT22;17996;51.056;3.656;2023-04-06T09:11:45;11.10;99.90
27544;DHT22;17996;51.056;3.656;2023-04-06T09:14:12;11.10;99.90
27544;DHT22;17996;51.056;3.656;2023-04-06T09:16:45;11.20;99.90
27544;DHT22;17996;51.056;3.656;2023-04-06T09:19:12;11.20;99.90
27544;DHT22;17996;51.056;3.656;2023-04-06T09:21:38;11.20;99.90
27544;DHT22;17996;51.056;3.656;2023-04-06T09:24:06;11.10;99.90
27544;DHT22;17996;51.056;3.656;2023-04-06T09:26:43;11.10;99.90
27544;DHT22;17996;51.056;3.656;2023-04-06T09:29:09;11.00;99.90
27544;DHT22;17996;51.056;3.656;2023-04-06T09:31:35;11.00;99.90
27544;DHT22;17996;51.056;3.656;2023-04-06T09:34:01;11.10;99.90
27544;DHT22;17996;51.056;3.656;2023-04-06T09:36:36;11.10;99.90
27544;DHT22;17996;51.056;3.656;2023-04-06T09:39:05;11.20;99.90
27544;DHT22;17996;51.056;3.656;2023-04-06T09:41:35;11.20;99.90
27544;DHT22;17996;51.056;3.656;2023-04-06T09:44:10;11.30;99.90
27544;DHT22;17996;51.056;3.656;2023-04-06T09:46:41;11.40;99.90
27544;DHT22;17996;51.056;3.656;2023-04-06T09:49:08;11.40;99.90
27544;DHT22;17996;51.056;3.656;2023-04-06T09:51:48;11.30;99.90
27544;DHT22;17996;51.056;3.656;2023-04-06T09:54:21;11.30;99.90
27544;DHT22;17996;51.056;3.656;2023-04-06T09:56:52;11.30;99.90
27544;DHT22;17996;51.056;3.656;2023-04-06T10:02:30;11.40;99.90
27544;DHT22;17996;51.056;3.656;2023-04-06T10:07:48;11.50;99.90
27544;DHT22;17996;51.056;3.656;2023-04-06T10:10:16;11.50;99.90
27544;DHT22;17996;51.056;3.656;2023-04-06T10:12:43;11.40;99.90
27544;DHT22;17996;51.056;3.656;2023-04-06T10:15:10;11.40;99.90
27544;DHT22;17996;51.056;3.656;2023-04-06T10:17:36;11.40;99.90
27544;DHT22;17996;51.056;3.656;2023-04-06T10:20:21;11.50;99.90
27544;DHT22;17996;51.056;3.656;2023-04-06T10:22:54;11.50;99.90
27544;DHT22;17996;51.056;3.656;2023-04-06T10:25:32;11.50;99.90
27544;DHT22;17996;51.056;3.656;2023-04-06T10:28:08;11.60;99.90
27544;DHT22;17996;51.056;3.656;2023-04-06T10:30:35;11.50;99.90
27544;DHT22;17996;51.056;3.656;2023-04-06T10:33:13;11.40;99.90
27544;DHT22;17996;51.056;3.656;2023-04-06T10:35:39;11.40;99.90
27544;DHT22;17996;51.056;3.656;2023-04-06T10:38:05;11.30;99.90
27544;DHT22;17996;51.056;3.656;2023-04-06T10:40:31;11.30;99.90
27544;DHT22;17996;51.056;3.656;2023-04-06T10:43:08;11.30;99.90
27544;DHT22;17996;51.056;3.656;2023-04-06T10:45:34;11.20;99.90
27544;DHT22;17996;51.056;3.656;2023-04-06T10:48:01;11.20;99.90
27544;DHT22;17996;51.056;3.656;2023-04-06T10:50:38;11.20;99.90
27544;DHT22;17996;51.056;3.656;2023-04-06T10:53:05;11.20;99.90
27544;DHT22;17996;51.056;3.656;2023-04-06T10:55:31;11.20;99.90
27544;DHT22;17996;51.056;3.656;2023-04-06T10:57:57;11.40;99.90
27544;DHT22;17996;51.056;3.656;2023-04-06T11:00:23;11.40;99.90
27544;DHT22;17996;51.056;3.656;2023-04-06T11:02:49;11.50;99.90
27544;DHT22;17996;51.056;3.656;2023-04-06T11:05:15;11.50;99.90
27544;DHT22;17996;51.056;3.656;2023-04-06T11:07:41;11.60;99.90
27544;DHT22;17996;51.056;3.656;2023-04-06T11:10:08;11.60;99.90
27544;DHT22;17996;51.056;3.656;2023-04-06T11:12:34;11.70;99.90
27544;DHT22;17996;51.056;3.656;2023-04-06T11:15:01;11.70;99.90
27544;DHT22;17996;51.056;3.656;2023-04-06T11:17:36;11.70;99.90
27544;DHT22;17996;51.056;3.656;2023-04-06T11:20:03;11.70;99.90
27544;DHT22;17996;51.056;3.656;2023-04-06T11:22:30;11.70;99.90
27544;DHT22;17996;51.056;3.656;2023-04-06T11:25:08;11.80;99.90
27544;DHT22;17996;51.056;3.656;2023-04-06T11:27:34;11.90;99.90
27544;DHT22;17996;51.056;3.656;2023-04-06T11:30:01;11.80;99.90
27544;DHT22;17996;51.056;3.656;2023-04-06T11:32:28;11.80;99.90
27544;DHT22;17996;51.056;3.656;2023-04-06T11:34:54;11.80;99.90
27544;DHT22;17996;51.056;3.656;2023-04-06T11:37:19;11.80;99.90
27544;DHT22;17996;51.056;3.656;2023-04-06T11:39:50;11.80;99.90
27544;DHT22;17996;51.056;3.656;2023-04-06T11:42:29;11.90;99.90
27544;DHT22;17996;51.056;3.656;2023-04-06T11:44:57;12.00;99.90
27544;DHT22;17996;51.056;3.656;2023-04-06T11:47:36;12.00;99.90
27544;DHT22;17996;51.056;3.656;2023-04-06T11:50:13;12.10;99.90
27544;DHT22;17996;51.056;3.656;2023-04-06T11:52:40;12.00;99.90
27544;DHT22;17996;51.056;3.656;2023-04-06T11:55:16;12.00;99.90
27544;DHT22;17996;51.056;3.656;2023-04-06T11:57:43;12.10;99.90
27544;DHT22;17996;51.056;3.656;2023-04-06T12:00:10;12.10;99.90
27544;DHT22;17996;51.056;3.656;2023-04-06T12:02:37;12.00;99.90
27544;DHT22;17996;51.056;3.656;2023-04-06T12:05:04;12.00;99.90
27544;DHT22;17996;51.056;3.656;2023-04-06T12:07:30;12.00;99.90
27544;DHT22;17996;51.056;3.656;2023-04-06T12:09:56;12.00;99.90
27544;DHT22;17996;51.056;3.656;2023-04-06T12:12:22;12.00;99.90
27544;DHT22;17996;51.056;3.656;2023-04-06T12:14:48;12.00;99.90
27544;DHT22;17996;51.056;3.656;2023-04-06T12:17:13;12.00;99.90
27544;DHT22;17996;51.056;3.656;2023-04-06T12:19:39;12.00;99.90
27544;DHT22;17996;51.056;3.656;2023-04-06T12:22:06;11.90;99.90
27544;DHT22;17996;51.056;3.656;2023-04-06T12:24:31;12.00;99.90
27544;DHT22;17996;51.056;3.656;2023-04-06T12:26:57;12.00;99.90
27544;DHT22;17996;51.056;3.656;2023-04-06T12:29:24;12.00;99.90
27544;DHT22;17996;51.056;3.656;2023-04-06T12:31:50;12.20;99.90
27544;DHT22;17996;51.056;3.656;2023-04-06T12:34:16;12.20;99.90
27544;DHT22;17996;51.056;3.656;2023-04-06T12:36:42;12.20;99.90
27544;DHT22;17996;51.056;3.656;2023-04-06T12:39:08;12.20;99.90
27544;DHT22;17996;51.056;3.656;2023-04-06T12:41:33;12.30;99.90
27544;DHT22;17996;51.056;3.656;2023-04-06T12:44:00;12.30;99.90
27544;DHT22;17996;51.056;3.656;2023-04-06T12:46:26;12.30;99.90
27544;DHT22;17996;51.056;3.656;2023-04-06T12:48:52;12.20;99.90
27544;DHT22;17996;51.056;3.656;2023-04-06T12:51:21;12.20;99.90
27544;DHT22;17996;51.056;3.656;2023-04-06T12:53:47;12.10;99.90
27544;DHT22;17996;51.056;3.656;2023-04-06T12:56:14;12.10;99.90
27544;DHT22;17996;51.056;3.656;2023-04-06T12:58:41;12.10;99.90
27544;DHT22;17996;51.056;3.656;2023-04-06T13:01:07;12.20;99.90
27544;DHT22;17996;51.056;3.656;2023-04-06T13:03:33;12.10;99.90
27544;DHT22;17996;51.056;3.656;2023-04-06T13:06:00;12.10;99.90
27544;DHT22;17996;51.056;3.656;2023-04-06T13:08:26;12.10;99.90
27544;DHT22;17996;51.056;3.656;2023-04-06T13:10:53;12.10;99.90
27544;DHT22;17996;51.056;3.656;2023-04-06T13:13:29;12.10;99.90
27544;DHT22;17996;51.056;3.656;2023-04-06T13:15:59;12.10;99.90
27544;DHT22;17996;51.056;3.656;2023-04-06T13:18:26;12.10;99.90
27544;DHT22;17996;51.056;3.656;2023-04-06T13:20:52;12.20;99.90
27544;DHT22;17996;51.056;3.656;2023-04-06T13:23:18;12.30;99.90
27544;DHT22;17996;51.056;3.656;2023-04-06T13:25:43;12.30;99.90
27544;DHT22;17996;51.056;3.656;2023-04-06T13:28:10;12.30;99.90
27544;DHT22;17996;51.056;3.656;2023-04-06T13:30:35;12.40;99.90
27544;DHT22;17996;51.056;3.656;2023-04-06T13:33:02;12.40;99.90
27544;DHT22;17996;51.056;3.656;2023-04-06T13:35:27;12.40;99.90
27544;DHT22;17996;51.056;3.656;2023-04-06T13:37:53;12.40;99.90
27544;DHT22;17996;51.056;3.656;2023-04-06T13:40:19;12.40;99.90
27544;DHT22;17996;51.056;3.656;2023-04-06T13:42:44;12.50;99.90
27544;DHT22;17996;51.056;3.656;2023-04-06T13:45:11;12.60;99.90
27544;DHT22;17996;51.056;3.656;2023-04-06T13:47:37;12.60;99.90
27544;DHT22;17996;51.056;3.656;2023-04-06T13:50:03;12.60;99.90
27544;DHT22;17996;51.056;3.656;2023-04-06T13:52:30;12.50;99.90
27544;DHT22;17996;51.056;3.656;2023-04-06T13:54:55;12.50;99.90
27544;DHT22;17996;51.056;3.656;2023-04-06T13:57:21;12.50;99.90
27544;DHT22;17996;51.056;3.656;2023-04-06T13:59:46;12.50;99.90
27544;DHT22;17996;51.056;3.656;2023-04-06T14:02:13;12.40;99.90
27544;DHT22;17996;51.056;3.656;2023-04-06T14:04:39;12.40;99.90
27544;DHT22;17996;51.056;3.656;2023-04-06T14:07:04;12.40;99.90
27544;DHT22;17996;51.056;3.656;2023-04-06T14:09:33;12.40;99.90
27544;DHT22;17996;51.056;3.656;2023-04-06T14:11:59;12.40;99.90
27544;DHT22;17996;51.056;3.656;2023-04-06T14:14:24;12.40;99.90
27544;DHT22;17996;51.056;3.656;2023-04-06T14:16:51;12.50;99.90
27544;DHT22;17996;51.056;3.656;2023-04-06T14:19:17;12.40;99.90
27544;DHT22;17996;51.056;3.656;2023-04-06T14:21:44;12.30;99.90
27544;DHT22;17996;51.056;3.656;2023-04-06T14:24:10;12.30;99.90
27544;DHT22;17996;51.056;3.656;2023-04-06T14:26:36;12.40;99.90
27544;DHT22;17996;51.056;3.656;2023-04-06T14:29:04;12.40;99.90
27544;DHT22;17996;51.056;3.656;2023-04-06T14:31:30;12.40;99.90
27544;DHT22;17996;51.056;3.656;2023-04-06T14:33:56;12.60;99.90
27544;DHT22;17996;51.056;3.656;2023-04-06T14:36:21;12.50;99.90
27544;DHT22;17996;51.056;3.656;2023-04-06T14:38:47;12.50;99.90
27544;DHT22;17996;51.056;3.656;2023-04-06T14:41:17;12.50;99.90
27544;DHT22;17996;51.056;3.656;2023-04-06T14:43:43;12.50;99.90
27544;DHT22;17996;51.056;3.656;2023-04-06T14:46:09;12.50;99.90
27544;DHT22;17996;51.056;3.656;2023-04-06T14:48:35;12.50;99.90
27544;DHT22;17996;51.056;3.656;2023-04-06T14:51:01;12.60;99.90
27544;DHT22;17996;51.056;3.656;2023-04-06T14:53:27;12.60;99.90
27544;DHT22;17996;51.056;3.656;2023-04-06T14:55:54;12.60;99.90
27544;DHT22;17996;51.056;3.656;2023-04-06T14:58:21;12.50;99.90
27544;DHT22;17996;51.056;3.656;2023-04-06T15:00:47;12.40;99.90
27544;DHT22;17996;51.056;3.656;2023-04-06T15:03:13;12.30;99.90
27544;DHT22;17996;51.056;3.656;2023-04-06T15:05:39;12.30;99.90
27544;DHT22;17996;51.056;3.656;2023-04-06T15:08:04;12.30;99.90
27544;DHT22;17996;51.056;3.656;2023-04-06T15:10:33;12.20;99.90
27544;DHT22;17996;51.056;3.656;2023-04-06T15:12:59;12.30;99.90
27544;DHT22;17996;51.056;3.656;2023-04-06T15:15:25;12.30;99.90
27544;DHT22;17996;51.056;3.656;2023-04-06T15:17:51;12.40;99.90
27544;DHT22;17996;51.056;3.656;2023-04-06T15:20:17;12.40;99.90
27544;DHT22;17996;51.056;3.656;2023-04-06T15:22:42;12.50;99.90
27544;DHT22;17996;51.056;3.656;2023-04-06T15:25:08;12.60;99.90
27544;DHT22;17996;51.056;3.656;2023-04-06T15:27:34;12.70;99.90
27544;DHT22;17996;51.056;3.656;2023-04-06T15:29:59;12.60;99.90
27544;DHT22;17996;51.056;3.656;2023-04-06T15:32:25;12.60;99.90
27544;DHT22;17996;51.056;3.656;2023-04-06T15:34:53;12.50;99.90
27544;DHT22;17996;51.056;3.656;2023-04-06T15:37:18;12.40;99.90
27544;DHT22;17996;51.056;3.656;2023-04-06T15:39:44;12.30;99.90